Time;durP1;ratioP1;P1;durP2;ratioP2;P2;SDS_P1;SDS_P2;PMS_P1;PMS_P2;Temp;Humidity;BMP_temperature;BMP_pressure;BME280_temperature;BME280_humidity;BME280_pressure;Samples;Min_cycle;Max_cycle;Signal;HPM_P1;HPM_P2
2022/10/08 00:00:57;;;;;;;6.97;1.92;;;;;;;10.59;95.44;101167.63;4995149;28;20113;-78
2022/10/08 00:03:25;;;;;;;6.43;2.38;;;;;;;10.55;95.57;101152.94;4994932;28;20038;-77
2022/10/08 00:06:04;;;;;;;;;;;;;;;10.59;95.41;101156.97;4995621;28;20027;-76
2022/10/08 00:08:33;;;;;;;5.90;2.20;;;;;;;10.51;96.32;101167.53;4995124;28;19910;-74
2022/10/08 00:11:02;;;;;;;4.13;1.67;;;;;;;10.47;96.51;101156.38;4994727;28;20030;-77
2022/10/08 00:13:39;;;;;;;9.83;2.33;;;;;;;10.53;96.67;101149.59;4994785;28;20033;-76
2022/10/08 00:16:19;;;;;;;6.20;2.17;;;;;;;10.60;95.81;101153.31;4994908;28;20049;-76
2022/10/08 00:18:46;;;;;;;9.03;3.03;;;;;;;10.68;95.97;101150.69;4995029;28;20038;-75
2022/10/08 00:21:16;;;;;;;6.50;2.47;;;;;;;10.74;95.58;101150.13;4994819;28;20026;-76
2022/10/08 00:23:43;;;;;;;9.10;2.70;;;;;;;10.70;95.41;101148.75;4995067;28;20045;-75
2022/10/08 00:26:10;;;;;;;7.23;2.63;;;;;;;10.70;94.68;101143.44;4994840;28;20029;-77
2022/10/08 00:28:37;;;;;;;9.80;2.67;;;;;;;10.78;94.99;101145.31;4994945;28;20478;-74
2022/10/08 00:31:14;;;;;;;7.33;2.20;;;;;;;10.79;94.33;101149.66;4994769;28;20081;-75
2022/10/08 00:33:40;;;;;;;9.50;3.40;;;;;;;10.77;94.08;101144.47;4994966;28;20070;-74
2022/10/08 00:36:09;;;;;;;7.73;2.80;;;;;;;10.76;93.80;101140.13;4994792;28;20053;-75
2022/10/08 00:38:35;;;;;;;7.50;2.60;;;;;;;10.80;93.71;101144.16;4994580;28;20036;-75
2022/10/08 00:41:04;;;;;;;8.80;2.30;;;;;;;10.83;93.49;101143.00;4996802;28;20034;-75
2022/10/08 00:43:42;;;;;;;9.07;2.17;;;;;;;10.85;93.05;101136.53;4999778;28;20117;-76
2022/10/08 00:46:24;;;;;;;8.07;2.45;;;;;;;10.89;92.77;101138.88;4999655;28;20359;-73
2022/10/08 00:49:09;;;;;;;7.73;2.50;;;;;;;10.88;92.82;101129.22;4996157;28;20030;-72
2022/10/08 00:51:34;;;;;;;8.70;2.67;;;;;;;10.86;91.99;101124.03;4997503;28;20030;-72
2022/10/08 00:54:01;;;;;;;6.70;2.70;;;;;;;10.83;91.79;101111.88;4997264;28;20114;-72
2022/10/08 00:56:30;;;;;;;4.93;2.30;;;;;;;10.86;91.29;101113.38;4997660;28;20386;-73
2022/10/08 00:58:56;;;;;;;5.15;2.40;;;;;;;10.86;91.27;101110.72;4994174;28;20034;-75
2022/10/08 01:01:22;;;;;;;10.20;2.97;;;;;;;10.91;90.48;101126.25;4993992;28;20026;-73
2022/10/08 01:03:47;;;;;;;8.63;3.43;;;;;;;10.91;90.82;101116.41;4993942;28;20481;-74
2022/10/08 01:06:28;;;;;;;7.60;2.90;;;;;;;10.91;90.85;101115.59;4994418;28;20470;-73
2022/10/08 01:09:13;;;;;;;5.23;2.17;;;;;;;10.85;90.08;101099.22;4996249;28;20486;-73
2022/10/08 01:12:03;;;;;;;9.90;2.90;;;;;;;10.96;90.36;101115.94;4996774;28;20026;-75
2022/10/08 01:14:49;;;;;;;14.00;3.50;;;;;;;10.95;88.61;101111.59;4994259;28;20022;-71
2022/10/08 01:17:19;;;;;;;7.93;2.60;;;;;;;10.93;87.91;101117.09;4976542;28;20056;-72
2022/10/08 01:20:12;;;;;;;5.87;1.90;;;;;;;10.96;87.80;101110.63;4993841;28;20034;-73
2022/10/08 01:22:59;;;;;;;8.63;2.57;;;;;;;10.93;87.35;101113.59;4993372;28;20070;-72
2022/10/08 01:26:06;;;;;;;8.97;3.00;;;;;;;10.93;87.06;101116.25;4993703;28;20070;-74
2022/10/08 01:28:49;;;;;;;9.80;2.55;;;;;;;10.94;86.45;101121.44;4993839;28;20077;-74
2022/10/08 01:31:21;;;;;;;7.57;2.30;;;;;;;10.92;86.51;101119.91;4996512;28;20064;-72
2022/10/08 01:33:52;;;;;;;9.03;2.73;;;;;;;10.93;86.46;101116.25;5000445;28;20029;-73
2022/10/08 01:36:48;;;;;;;5.67;1.63;;;;;;;10.92;85.83;101106.59;4987369;28;20045;-74
2022/10/08 01:39:20;;;;;;;4.83;2.20;;;;;;;10.91;85.77;101112.91;5001501;28;20037;-72
2022/10/08 01:41:51;;;;;;;5.20;2.30;;;;;;;10.88;86.30;101107.91;5001760;28;20059;-72
2022/10/08 01:44:23;;;;;;;7.30;2.33;;;;;;;10.88;86.23;101099.91;4997936;28;20033;-72
2022/10/08 01:46:50;;;;;;;5.77;2.30;;;;;;;10.85;86.46;101106.38;4996380;28;20091;-71
2022/10/08 01:49:24;;;;;;;11.30;2.27;;;;;;;10.81;85.81;101092.56;4993610;28;20421;-72
2022/10/08 01:52:03;;;;;;;7.77;2.73;;;;;;;10.81;85.08;101092.56;4993183;28;20034;-73
2022/10/08 01:54:31;;;;;;;5.33;2.67;;;;;;;10.71;85.02;101081.16;4993045;28;20037;-73
2022/10/08 01:57:00;;;;;;;5.57;2.13;;;;;;;10.70;85.59;101084.00;4992847;28;20109;-73
2022/10/08 01:59:31;;;;;;;6.82;2.42;;;;;;;10.79;85.89;101091.03;4993113;28;20037;-72
2022/10/08 02:01:57;;;;;;;7.23;3.13;;;;;;;10.83;85.69;101085.22;4992898;28;20037;-73
2022/10/08 02:04:33;;;;;;;7.13;3.27;;;;;;;10.84;86.05;101078.91;4992823;28;20038;-73
2022/10/08 02:07:08;;;;;;;6.37;2.80;;;;;;;10.85;85.77;101071.75;4993045;28;20034;-74
2022/10/08 02:09:37;;;;;;;5.70;2.53;;;;;;;10.84;85.20;101073.59;4993055;28;20058;-73
2022/10/08 02:12:03;;;;;;;7.87;2.27;;;;;;;10.80;85.27;101074.06;4992801;28;20026;-75
2022/10/08 02:14:30;;;;;;;4.27;2.30;;;;;;;10.77;85.65;101063.72;4992678;28;20469;-72
2022/10/08 02:17:18;;;;;;;7.23;2.33;;;;;;;10.64;85.09;101036.63;4992735;28;20050;-72
2022/10/08 02:19:53;;;;;;;4.70;2.17;;;;;;;10.81;84.55;101059.75;4992899;28;20076;-72
2022/10/08 02:22:22;;;;;;;5.70;2.63;;;;;;;10.82;84.69;101056.09;4992750;28;20034;-74
2022/10/08 02:24:58;;;;;;;5.70;2.17;;;;;;;10.81;83.82;101049.91;4992521;28;20485;-72
2022/10/08 02:27:32;;;;;;;5.23;2.30;;;;;;;10.77;84.21;101045.91;4992842;28;20030;-72
2022/10/08 02:30:10;;;;;;;10.23;2.93;;;;;;;10.78;84.44;101050.25;4992853;28;20034;-73
2022/10/08 02:33:06;;;;;;;5.82;2.38;;;;;;;10.82;84.10;101059.59;4975397;28;20354;-72
2022/10/08 02:35:54;;;;;;;5.53;2.10;;;;;;;10.76;84.25;101041.56;4994397;28;20034;-73
2022/10/08 02:38:25;;;;;;;5.95;2.92;;;;;;;10.79;83.92;101051.91;4996531;28;20151;-72
2022/10/08 02:40:55;;;;;;;8.17;1.93;;;;;;;10.80;84.48;101042.91;4979293;28;20022;-74
2022/10/08 02:43:26;;;;;;;6.30;3.20;;;;;;;10.78;84.41;101039.56;4996656;28;20084;-75
2022/10/08 02:46:01;;;;;;;6.27;2.03;;;;;;;10.82;84.25;101040.94;4996419;28;20045;-72
2022/10/08 02:48:30;;;;;;;8.17;3.10;;;;;;;10.73;84.58;101020.56;4996677;28;20030;-72
2022/10/08 02:50:58;;;;;;;;;;;;;;;10.82;84.72;101035.59;4996955;28;20038;-73
2022/10/08 02:53:24;;;;;;;7.10;2.30;;;;;;;10.73;84.85;101028.56;4996189;28;19917;-72
2022/10/08 02:55:59;;;;;;;8.47;2.60;;;;;;;10.78;84.82;101023.59;4996140;28;20500;-73
2022/10/08 02:58:25;;;;;;;9.37;2.60;;;;;;;10.78;85.11;101028.09;4995975;28;20073;-72
2022/10/08 03:00:56;;;;;;;5.13;2.40;;;;;;;10.77;85.02;101021.09;4996408;28;20466;-72
2022/10/08 03:03:32;;;;;;;8.90;3.30;;;;;;;10.69;84.72;101011.19;4999717;28;20037;-71
2022/10/08 03:06:02;;;;;;;6.30;2.70;;;;;;;10.71;85.03;101011.06;4990296;28;20035;-71
2022/10/08 03:08:29;;;;;;;6.53;2.90;;;;;;;10.70;85.30;101020.88;5007570;28;20054;-74
2022/10/08 03:10:55;;;;;;;16.03;2.70;;;;;;;10.65;85.55;101015.16;4996884;28;20030;-73
2022/10/08 03:13:22;;;;;;;9.40;3.13;;;;;;;10.68;85.61;101012.19;4996690;28;20026;-72
2022/10/08 03:15:54;;;;;;;7.10;2.67;;;;;;;10.49;85.78;100978.63;4971521;28;20039;-73
2022/10/08 03:18:23;;;;;;;4.37;2.63;;;;;;;10.73;85.65;101009.09;4976926;28;20094;-75
2022/10/08 03:20:51;;;;;;;12.73;3.40;;;;;;;10.70;86.06;101010.22;4976506;28;20035;-75
2022/10/08 03:23:18;;;;;;;8.77;3.55;;;;;;;10.65;85.99;101007.19;4976463;28;20065;-71
2022/10/08 03:25:43;;;;;;;6.07;2.87;;;;;;;10.67;86.28;101009.69;4976320;28;20389;-73
2022/10/08 03:28:09;;;;;;;9.83;3.63;;;;;;;10.65;86.32;100995.69;4976334;28;20023;-72
2022/10/08 03:30:35;;;;;;;6.00;2.97;;;;;;;10.63;86.11;100998.50;4976270;28;20391;-73
2022/10/08 03:33:00;;;;;;;9.60;2.93;;;;;;;10.67;86.16;101015.84;4976137;28;20075;-71
2022/10/08 03:35:26;;;;;;;7.00;2.57;;;;;;;10.66;86.41;101000.03;4976022;28;20026;-71
2022/10/08 03:37:52;;;;;;;8.87;3.07;;;;;;;10.67;86.48;101005.19;4958577;28;20101;-73
2022/10/08 03:40:20;;;;;;;11.03;3.10;;;;;;;10.61;86.51;100984.53;4976120;28;20045;-75
2022/10/08 03:42:46;;;;;;;6.80;3.30;;;;;;;10.64;86.76;100994.84;4976113;28;20027;-74
2022/10/08 03:45:11;;;;;;;12.30;3.60;;;;;;;10.63;87.11;100997.69;4975671;28;20432;-73
2022/10/08 03:47:37;;;;;;;9.07;3.10;;;;;;;10.61;86.99;100995.19;4975754;28;20566;-72
2022/10/08 03:50:03;;;;;;;10.17;2.90;;;;;;;10.60;86.47;101000.66;4975721;28;20041;-73
2022/10/08 03:52:29;;;;;;;5.53;2.60;;;;;;;10.60;87.53;100988.19;4975601;28;20038;-72
2022/10/08 03:54:55;;;;;;;12.50;3.53;;;;;;;10.60;87.30;100996.16;4958415;28;20165;-72
2022/10/08 03:57:21;;;;;;;5.33;2.70;;;;;;;10.56;87.84;100992.16;4975546;28;20129;-75
2022/10/08 03:59:47;;;;;;;13.30;3.10;;;;;;;10.55;87.31;100993.16;4975461;28;20427;-74
2022/10/08 04:02:13;;;;;;;6.63;3.27;;;;;;;10.49;87.27;100988.44;4975577;28;20170;-74
2022/10/08 04:04:38;;;;;;;8.63;2.97;;;;;;;10.50;87.53;100992.78;4975503;28;20038;-72
2022/10/08 04:07:04;;;;;;;8.73;3.13;;;;;;;10.48;87.74;101000.09;4975269;28;20498;-74
2022/10/08 04:09:29;;;;;;;11.60;3.23;;;;;;;10.40;87.81;100986.72;4975552;28;20053;-74
2022/10/08 04:11:55;;;;;;;7.33;3.10;;;;;;;10.38;88.05;100986.03;4976311;28;20037;-73
2022/10/08 04:14:20;;;;;;;8.17;3.20;;;;;;;10.23;88.06;100965.31;4977576;28;20026;-73
2022/10/08 04:16:47;;;;;;;4.80;3.60;;;;;;;10.26;88.48;100984.63;4976128;28;20529;-73
2022/10/08 04:19:13;;;;;;;8.20;3.43;;;;;;;10.19;88.74;100979.06;4975145;28;20046;-73
2022/10/08 04:21:39;;;;;;;8.77;3.30;;;;;;;10.14;89.01;100978.69;4975177;28;20027;-72
2022/10/08 04:24:05;;;;;;;9.13;3.03;;;;;;;10.08;89.54;100971.28;4975258;28;20041;-73
2022/10/08 04:26:30;;;;;;;10.00;3.20;;;;;;;10.04;89.32;100983.25;4975175;28;20031;-74
2022/10/08 04:28:56;;;;;;;12.23;3.30;;;;;;;9.88;89.27;100966.16;4975005;28;20035;-78
2022/10/08 04:31:22;;;;;;;9.60;3.30;;;;;;;9.75;90.34;100970.19;4975167;28;20121;-72
2022/10/08 04:33:49;;;;;;;8.33;3.27;;;;;;;9.68;90.66;100979.75;4957614;28;20041;-74
2022/10/08 04:36:19;;;;;;;9.07;3.20;;;;;;;9.60;90.94;100968.06;4975074;28;20039;-73
2022/10/08 04:38:46;;;;;;;8.00;3.27;;;;;;;9.60;91.00;100973.38;4975061;28;20050;-72
2022/10/08 04:41:20;;;;;;;10.40;2.90;;;;;;;9.58;91.38;100970.03;4974923;28;20155;-74
2022/10/08 04:43:46;;;;;;;6.40;2.92;;;;;;;9.53;91.91;100969.63;4957880;28;20038;-72
2022/10/08 04:46:15;;;;;;;6.37;3.33;;;;;;;9.53;91.94;100966.13;4974889;28;20034;-72
2022/10/08 04:48:46;;;;;;;8.30;2.83;;;;;;;9.49;91.52;100965.59;4975325;28;20026;-74
2022/10/08 04:51:11;;;;;;;10.07;2.90;;;;;;;9.49;91.92;100968.25;4977977;28;20081;-75
2022/10/08 04:53:37;;;;;;;7.43;3.13;;;;;;;9.48;92.01;100969.25;4978740;28;20039;-73
2022/10/08 04:56:30;;;;;;;13.90;5.43;;;;;;;9.51;91.76;100968.94;4977853;28;20037;-72
2022/10/08 04:58:58;;;;;;;7.17;4.00;;;;;;;9.36;91.02;100945.72;4971719;28;20039;-73
2022/10/08 05:01:25;;;;;;;7.93;3.03;;;;;;;9.48;91.27;100963.94;4975839;28;20106;-74
2022/10/08 05:03:53;;;;;;;7.53;3.47;;;;;;;9.44;90.86;100970.53;4980668;28;20031;-70
2022/10/08 05:06:21;;;;;;;12.80;3.53;;;;;;;9.37;90.97;100966.81;4992528;28;20030;-71
2022/10/08 05:08:48;;;;;;;11.20;3.35;;;;;;;9.37;91.48;100968.66;4994269;28;20078;-72
2022/10/08 05:11:14;;;;;;;8.93;3.47;;;;;;;9.36;91.58;100964.31;4995702;28;20041;-72
2022/10/08 05:13:41;;;;;;;6.37;2.97;;;;;;;9.42;90.89;100963.72;4995174;28;20058;-77
2022/10/08 05:16:32;;;;;;;4.67;3.17;;;;;;;9.47;90.67;100958.78;4994458;28;20549;-75
2022/10/08 05:31:38;;;;;;;9.50;3.83;;;;;;;9.62;89.73;100951.97;5962878;23;21263;-75
2022/10/08 05:34:24;;;;;;;6.20;2.93;;;;;;;9.58;89.22;100947.94;4991491;28;20125;-75
2022/10/08 05:37:16;;;;;;;6.60;3.27;;;;;;;9.69;89.27;100949.53;4992130;28;20030;-77
2022/10/08 05:39:42;;;;;;;5.27;3.07;;;;;;;9.68;89.26;100937.22;5008186;28;20052;-72
2022/10/08 05:42:07;;;;;;;9.33;4.23;;;;;;;9.70;89.29;100940.56;5015957;28;20053;-74
2022/10/08 05:44:33;;;;;;;7.47;3.70;;;;;;;9.72;89.07;100943.91;5004461;28;20030;-75
2022/10/08 05:47:06;;;;;;;12.00;4.13;;;;;;;9.73;89.16;100942.91;4993838;28;20037;-76
2022/10/08 05:49:33;;;;;;;6.47;3.30;;;;;;;9.77;88.25;100946.94;4993310;28;20041;-74
2022/10/08 05:51:59;;;;;;;9.77;3.13;;;;;;;9.82;88.30;100949.97;4959649;28;20037;-73
2022/10/08 05:54:24;;;;;;;6.40;3.47;;;;;;;9.84;87.58;100926.72;4993414;28;20369;-71
2022/10/08 05:56:50;;;;;;;6.67;3.53;;;;;;;10.00;87.66;100947.28;4992703;28;20120;-68
2022/10/08 05:59:23;;;;;;;8.53;3.30;;;;;;;9.95;87.08;100923.81;4992540;28;20034;-74
2022/10/08 06:01:49;;;;;;;10.73;3.43;;;;;;;10.11;86.63;100947.88;4992886;28;20076;-70
2022/10/08 06:04:16;;;;;;;8.80;2.90;;;;;;;10.14;86.03;100939.59;4992729;28;20026;-72
2022/10/08 06:06:42;;;;;;;7.97;3.17;;;;;;;10.16;86.18;100948.25;4992862;28;20374;-73
2022/10/08 06:09:11;;;;;;;8.93;3.37;;;;;;;10.18;86.42;100940.13;4992186;28;20355;-73
2022/10/08 06:11:38;;;;;;;7.13;3.47;;;;;;;10.13;86.28;100935.28;4992243;28;20031;-77
2022/10/08 06:14:05;;;;;;;8.43;4.13;;;;;;;10.09;85.97;100933.88;4958377;28;20042;-77
2022/10/08 06:16:35;;;;;;;8.55;2.85;;;;;;;10.08;86.14;100929.56;4958790;28;20417;-76
2022/10/08 06:19:02;;;;;;;8.73;3.60;;;;;;;10.12;86.65;100925.63;4974631;28;20041;-74
2022/10/08 06:21:29;;;;;;;4.73;2.93;;;;;;;10.14;85.90;100928.13;4992714;28;20030;-78
2022/10/08 06:24:13;;;;;;;5.83;3.60;;;;;;;10.19;86.29;100937.31;4991841;28;20022;-74
2022/10/08 06:26:43;;;;;;;6.30;3.07;;;;;;;10.22;85.91;100931.69;4992173;28;20022;-79
2022/10/08 06:29:18;;;;;;;12.00;4.33;;;;;;;10.12;85.91;100906.13;4958603;28;20085;-79
2022/10/08 06:31:48;;;;;;;10.57;3.10;;;;;;;10.27;85.92;100933.06;4974346;28;20470;-78
2022/10/08 06:34:15;;;;;;;10.13;3.87;;;;;;;10.31;85.42;100923.75;4957933;28;20038;-80
2022/10/08 06:36:42;;;;;;;7.68;3.40;;;;;;;10.21;85.38;100906.06;4974543;28;20034;-78
2022/10/08 06:39:13;;;;;;;10.17;4.53;;;;;;;10.41;85.07;100930.66;4957859;28;20042;-78
2022/10/08 06:41:40;;;;;;;5.73;3.10;;;;;;;10.31;85.06;100907.78;4974805;28;20417;-79
2022/10/08 06:47:50;;;;;;;8.73;3.80;;;;;;;10.38;85.19;100907.00;4991251;28;20116;-80
2022/10/08 07:06:39;;;;;;;10.07;3.43;;;;;;;10.48;85.31;100875.78;5507130;23;20502;-77
2022/10/08 07:09:06;;;;;;;12.47;3.50;;;;;;;10.52;85.39;100878.97;4992191;28;20042;-76
2022/10/08 07:11:32;;;;;;;7.37;3.03;;;;;;;10.57;84.31;100871.31;4992301;28;20042;-77
2022/10/08 07:13:58;;;;;;;11.70;4.50;;;;;;;10.72;84.68;100875.06;4975034;28;20026;-77
2022/10/08 07:16:25;;;;;;;9.00;3.17;;;;;;;10.76;84.34;100870.25;4992315;28;20026;-78
2022/10/08 07:18:52;;;;;;;10.10;4.57;;;;;;;10.82;83.48;100881.09;4974870;28;20125;-77
2022/10/08 07:21:20;;;;;;;7.70;3.40;;;;;;;10.76;83.75;100871.06;4993879;28;20030;-75
2022/10/08 07:23:45;;;;;;;5.90;3.40;;;;;;;10.73;84.16;100873.22;4996392;28;20029;-77
2022/10/08 07:26:13;;;;;;;7.93;3.63;;;;;;;10.65;84.28;100868.69;4996091;28;20490;-78
2022/10/08 07:28:42;;;;;;;8.93;2.72;;;;;;;10.60;83.57;100849.69;4995824;28;20470;-77
2022/10/08 07:31:18;;;;;;;6.25;2.80;;;;;;;10.47;84.03;100846.66;4995551;28;20033;-76
2022/10/08 07:33:44;;;;;;;7.80;3.80;;;;;;;10.58;84.41;100867.66;4995812;28;20377;-78
2022/10/08 07:36:20;;;;;;;8.03;3.50;;;;;;;10.51;84.55;100859.47;4995962;28;20050;-81
2022/10/08 07:38:56;;;;;;;7.37;3.43;;;;;;;10.41;84.39;100839.31;4998097;28;20037;-77
2022/10/08 07:41:22;;;;;;;8.90;3.80;;;;;;;10.49;84.52;100855.31;4996389;28;20026;-79
2022/10/08 07:43:58;;;;;;;8.57;3.30;;;;;;;10.48;84.23;100849.16;4996309;28;20417;-76
2022/10/08 07:46:35;;;;;;;9.00;3.30;;;;;;;10.54;84.24;100847.69;4997009;28;20046;-81
2022/10/08 07:49:03;;;;;;;6.37;3.07;;;;;;;10.63;84.46;100845.88;4998570;28;20034;-76
2022/10/08 07:51:30;;;;;;;7.30;3.13;;;;;;;10.73;83.51;100847.44;4982099;28;20458;-79
2022/10/08 07:53:57;;;;;;;7.33;2.90;;;;;;;10.71;83.57;100830.78;4998343;28;20030;-75
2022/10/08 07:56:23;;;;;;;8.40;2.77;;;;;;;10.86;83.49;100847.78;4996793;28;20405;-79
2022/10/08 07:58:49;;;;;;;9.27;3.40;;;;;;;10.90;83.06;100853.63;4965984;28;20046;-78
2022/10/08 08:01:18;;;;;;;8.43;3.23;;;;;;;10.95;82.90;100845.13;5009390;28;20041;-77
2022/10/08 08:03:44;;;;;;;11.27;3.10;;;;;;;11.01;82.96;100836.50;5015665;28;20029;-79
2022/10/08 08:06:16;;;;;;;7.83;3.57;;;;;;;11.09;82.64;100831.19;5011026;28;20042;-79
2022/10/08 08:08:44;;;;;;;14.43;3.40;;;;;;;11.13;82.74;100812.03;5010204;28;20431;-75
2022/10/08 08:11:13;;;;;;;9.52;3.47;;;;;;;11.18;81.85;100812.38;5016717;28;20394;-76
2022/10/08 08:13:40;;;;;;;9.18;3.75;;;;;;;11.26;81.77;100824.84;5008875;28;20026;-77
2022/10/08 08:16:09;;;;;;;6.90;3.67;;;;;;;11.32;81.74;100821.56;5009915;28;20050;-76
2022/10/08 08:18:40;;;;;;;7.83;4.23;;;;;;;11.33;81.59;100817.88;4988690;28;20102;-76
2022/10/08 08:21:09;;;;;;;9.43;3.83;;;;;;;11.48;81.23;100824.22;4996424;28;20057;-74
2022/10/08 08:23:37;;;;;;;12.80;4.20;;;;;;;11.52;80.86;100819.38;4995155;28;20477;-74
2022/10/08 08:26:05;;;;;;;;;;;;;;;11.61;80.79;100825.56;4995572;28;20038;-74
2022/10/08 08:28:30;;;;;;;11.30;4.47;;;;;;;11.67;80.23;100819.53;4994869;28;19909;-73
2022/10/08 08:31:17;;;;;;;8.07;3.10;;;;;;;11.77;79.54;100815.69;4994529;28;20027;-73
2022/10/08 08:33:49;;;;;;;8.80;3.33;;;;;;;11.66;79.23;100789.38;4994501;28;20040;-75
2022/10/08 08:36:17;;;;;;;8.30;3.93;;;;;;;11.90;78.95;100820.56;4994759;28;20065;-76
2022/10/08 08:38:43;;;;;;;7.93;3.70;;;;;;;11.89;78.22;100813.53;4994522;28;20093;-75
2022/10/08 08:41:34;;;;;;;10.97;4.47;;;;;;;11.99;78.97;100811.50;4994379;28;20454;-72
2022/10/08 08:44:06;;;;;;;18.43;9.20;;;;;;;12.15;78.78;100820.50;4994241;28;20038;-74
2022/10/08 08:46:39;;;;;;;44.10;23.17;;;;;;;12.22;78.16;100808.13;4994313;28;20080;-73
2022/10/08 08:49:18;;;;;;;8.37;3.20;;;;;;;12.30;76.92;100808.09;4994549;28;20045;-73
2022/10/08 08:51:43;;;;;;;8.65;3.88;;;;;;;12.37;77.14;100814.38;4993919;28;20382;-74
2022/10/08 08:54:09;;;;;;;7.00;3.90;;;;;;;12.58;76.66;100801.28;4993978;28;20031;-74
2022/10/08 08:56:34;;;;;;;23.47;8.03;;;;;;;12.74;75.94;100789.69;4993807;28;20065;-72
2022/10/08 08:59:13;;;;;;;24.40;11.00;;;;;;;12.93;75.34;100794.56;4993883;28;20077;-74
2022/10/08 09:01:50;;;;;;;11.23;4.70;;;;;;;13.03;74.26;100795.19;4993628;28;20018;-73
2022/10/08 09:04:40;;;;;;;11.33;5.20;;;;;;;13.14;74.23;100793.09;4992884;28;20474;-75
2022/10/08 09:07:56;;;;;;;6.27;3.40;;;;;;;13.23;73.87;100786.69;4993301;28;20046;-73
2022/10/08 09:10:48;;;;;;;13.67;3.93;;;;;;;13.26;72.68;100779.16;4993230;28;20041;-74
2022/10/08 09:13:23;;;;;;;8.37;3.40;;;;;;;13.40;72.64;100779.38;4993104;28;20039;-76
2022/10/08 09:15:49;;;;;;;9.80;3.33;;;;;;;13.45;72.29;100787.69;4993762;28;20030;-73
2022/10/08 09:18:15;;;;;;;10.90;4.90;;;;;;;13.63;71.90;100777.50;4993528;28;20492;-74
2022/10/08 09:20:42;;;;;;;12.33;6.27;;;;;;;13.73;71.54;100787.94;4993131;28;20202;-74
2022/10/08 09:23:15;;;;;;;8.63;5.53;;;;;;;13.82;71.46;100774.28;4993381;28;20026;-74
2022/10/08 09:25:43;;;;;;;8.53;3.33;;;;;;;13.70;70.77;100783.78;4992779;28;20532;-74
2022/10/08 09:28:08;;;;;;;7.70;4.80;;;;;;;13.44;72.14;100765.47;4992916;28;20026;-72
2022/10/08 09:30:45;;;;;;;9.57;3.43;;;;;;;13.20;72.45;100766.50;4975832;28;20037;-74
2022/10/08 09:33:28;;;;;;;;;;;;;;;13.11;73.52;100764.88;4992805;28;20046;-75
2022/10/08 09:35:54;;;;;;;8.97;3.47;;;;;;;12.97;73.91;100763.78;4991650;28;20369;-77
2022/10/08 09:38:45;;;;;;;10.13;4.03;;;;;;;13.00;74.38;100751.91;4992276;28;20070;-75
2022/10/08 09:41:18;;;;;;;10.53;3.27;;;;;;;12.90;73.66;100751.31;4988871;28;20038;-75
2022/10/08 09:44:14;;;;;;;6.37;3.43;;;;;;;12.95;74.70;100755.13;4983273;28;20090;-74
2022/10/08 09:46:46;;;;;;;6.53;3.58;;;;;;;13.07;73.97;100760.91;4955502;28;20096;-74
2022/10/08 09:49:32;;;;;;;5.53;3.13;;;;;;;13.06;73.76;100758.41;4982895;28;20452;-73
2022/10/08 09:52:27;;;;;;;11.53;3.60;;;;;;;13.19;73.63;100766.69;4979758;28;20057;-75
2022/10/08 09:59:00;;;;;;;7.90;3.90;;;;;;;13.15;73.71;100754.66;4949396;28;20126;-77
2022/10/08 10:01:46;;;;;;;5.17;3.60;;;;;;;13.03;73.68;100735.53;4962544;28;20410;-73
2022/10/08 10:04:28;;;;;;;9.03;3.67;;;;;;;13.06;73.19;100742.38;4982109;28;20051;-72
2022/10/08 10:06:56;;;;;;;9.90;3.20;;;;;;;13.05;73.25;100738.03;4984901;28;20054;-74
2022/10/08 10:09:22;;;;;;;;;;;;;;;13.09;73.23;100724.13;4983713;28;20097;-72
2022/10/08 10:12:13;;;;;;;8.97;3.67;;;;;;;12.98;73.44;100737.88;4981111;28;19977;-73
2022/10/08 10:21:49;;;;;;;9.37;4.80;;;;;;;13.00;73.66;100726.00;4910883;28;20093;-80
2022/10/08 10:24:52;;;;;;;10.50;4.60;;;;;;;13.05;74.00;100725.50;4985623;28;20038;-79
2022/10/08 10:31:36;;;;;;;6.23;3.13;;;;;;;13.25;73.44;100713.28;4981438;28;20094;-73
2022/10/08 10:45:48;;;;;;;8.17;3.80;;;;;;;13.40;72.30;100709.84;5375351;23;20062;-73
2022/10/08 10:48:23;;;;;;;6.63;3.20;;;;;;;13.24;71.88;100668.84;4982847;28;20050;-74
2022/10/08 10:55:29;;;;;;;5.67;3.03;;;;;;;13.54;72.00;100706.34;4983749;28;20529;-76
2022/10/08 10:58:44;;;;;;;6.27;3.37;;;;;;;13.69;71.40;100707.19;4987653;28;20027;-74
2022/10/08 11:05:11;;;;;;;11.05;3.42;;;;;;;13.64;71.08;100693.53;4989440;28;20038;-74
2022/10/08 11:08:15;;;;;;;7.00;3.70;;;;;;;13.60;72.06;100689.56;4987024;28;20057;-76
2022/10/08 11:11:18;;;;;;;9.37;2.70;;;;;;;13.51;71.78;100683.44;4965898;28;20117;-74
2022/10/08 11:17:28;;;;;;;11.10;3.83;;;;;;;13.35;72.24;100680.97;4986557;28;20463;-73
2022/10/08 11:24:07;;;;;;;8.07;3.33;;;;;;;13.22;72.08;100659.34;4991920;28;20102;-75
2022/10/08 11:30:22;;;;;;;8.10;4.20;;;;;;;13.35;71.31;100626.63;4999475;28;20053;-74
2022/10/08 11:32:51;;;;;;;6.83;3.20;;;;;;;13.55;71.47;100651.81;5000484;28;20482;-75
2022/10/08 11:39:27;;;;;;;6.47;2.93;;;;;;;13.36;70.64;100601.56;4998699;28;20033;-74
2022/10/08 11:41:56;;;;;;;4.87;2.90;;;;;;;13.64;70.50;100653.41;4996071;28;20038;-73
2022/10/08 11:44:33;;;;;;;9.80;3.30;;;;;;;13.70;70.67;100663.34;4988338;28;20459;-73
2022/10/08 11:47:34;;;;;;;6.23;3.13;;;;;;;13.66;69.83;100651.34;4993567;28;20093;-74
2022/10/08 11:50:01;;;;;;;7.53;3.77;;;;;;;13.62;70.29;100644.72;4995120;28;20038;-73
2022/10/08 11:52:30;;;;;;;4.53;2.90;;;;;;;13.52;70.33;100646.81;4995339;28;20086;-74
2022/10/08 11:55:19;;;;;;;8.17;3.97;;;;;;;13.60;70.43;100638.72;4998945;28;20037;-75
2022/10/08 11:57:55;;;;;;;9.27;3.40;;;;;;;13.62;69.88;100639.38;4993186;28;20518;-72
2022/10/08 12:00:38;;;;;;;9.67;3.53;;;;;;;13.66;69.98;100629.94;4995940;28;20015;-74
2022/10/08 12:03:39;;;;;;;8.03;3.17;;;;;;;13.81;70.16;100630.75;4992040;28;20023;-74
2022/10/08 12:06:48;;;;;;;5.47;3.07;;;;;;;13.83;69.00;100643.94;4973485;28;20126;-74
2022/10/08 12:09:23;;;;;;;5.33;3.47;;;;;;;13.72;69.13;100612.31;4981356;28;20038;-74
2022/10/08 12:11:50;;;;;;;6.37;3.23;;;;;;;13.79;69.35;100622.06;4979717;28;20027;-74
2022/10/08 12:14:16;;;;;;;6.93;3.08;;;;;;;13.85;69.49;100624.00;4958644;28;20023;-75
2022/10/08 12:16:47;;;;;;;7.73;4.10;;;;;;;13.89;69.22;100628.00;4990630;28;20074;-73
2022/10/08 12:19:34;;;;;;;11.70;4.17;;;;;;;13.86;69.25;100639.03;4989483;28;20439;-73
2022/10/08 12:22:00;;;;;;;6.57;3.20;;;;;;;13.89;69.01;100619.13;4987475;28;20568;-75
2022/10/08 12:24:37;;;;;;;8.37;3.90;;;;;;;13.89;69.06;100619.97;4984436;28;20027;-73
2022/10/08 12:27:15;;;;;;;8.57;3.58;;;;;;;13.93;68.98;100625.75;4968045;28;20046;-72
2022/10/08 12:29:59;;;;;;;8.82;3.55;;;;;;;13.89;68.70;100619.97;4983639;28;20038;-72
2022/10/08 12:32:27;;;;;;;8.10;3.67;;;;;;;13.86;68.38;100614.13;4981915;28;20018;-72
2022/10/08 12:34:53;;;;;;;4.25;2.65;;;;;;;13.89;68.39;100603.91;4975002;28;20031;-75
2022/10/08 12:37:56;;;;;;;9.27;3.00;;;;;;;13.89;68.25;100603.91;4974798;28;20482;-75
2022/10/08 12:40:30;;;;;;;7.33;3.13;;;;;;;14.01;68.37;100611.44;4952340;28;20045;-74
2022/10/08 12:43:22;;;;;;;8.33;3.50;;;;;;;13.88;67.88;100591.53;4976179;28;20110;-76
2022/10/08 12:46:06;;;;;;;5.50;3.07;;;;;;;14.00;67.80;100604.41;4986152;28;20050;-73
2022/10/08 12:48:52;;;;;;;8.23;3.00;;;;;;;14.02;67.77;100586.31;4997533;28;20113;-75
2022/10/08 12:51:51;;;;;;;3.83;3.43;;;;;;;13.99;67.66;100590.19;4989750;28;20549;-72
2022/10/08 12:54:20;;;;;;;8.33;3.87;;;;;;;13.98;67.80;100585.88;4983470;28;20062;-74
2022/10/08 12:56:47;;;;;;;3.57;2.93;;;;;;;14.03;68.06;100588.78;4974529;28;20050;-74
2022/10/08 12:59:13;;;;;;;8.13;3.50;;;;;;;14.03;68.27;100598.69;4990481;28;20412;-72
2022/10/08 13:01:41;;;;;;;4.97;2.90;;;;;;;14.00;68.66;100599.06;4971294;28;20034;-72
2022/10/08 13:04:31;;;;;;;8.02;2.90;;;;;;;14.05;69.00;100604.69;4982943;28;20478;-73
2022/10/08 13:06:57;;;;;;;4.53;3.50;;;;;;;14.06;68.24;100593.78;4978864;28;20132;-71
2022/10/08 13:09:31;;;;;;;5.90;2.80;;;;;;;14.05;67.84;100591.28;4979192;28;20038;-71
2022/10/08 13:11:59;;;;;;;6.63;3.33;;;;;;;13.96;68.47;100582.56;4984720;28;20031;-74
2022/10/08 13:14:25;;;;;;;5.03;3.28;;;;;;;14.05;67.78;100591.28;4959387;28;20046;-70
2022/10/08 13:16:50;;;;;;;7.50;3.23;;;;;;;13.95;67.49;100589.75;4991283;28;20034;-70